sensor_id;sensor_type;location;lat;lon;timestamp;temperature;humidity
24207;DHT22;12351;52.284;9.160;2022-11-02T00:00:33;12.10;99.90
24207;DHT22;12351;52.284;9.160;2022-11-02T00:03:21;12.10;99.90
24207;DHT22;12351;52.284;9.160;2022-11-02T00:06:09;12.10;99.90
24207;DHT22;12351;52.284;9.160;2022-11-02T00:08:59;12.10;99.90
24207;DHT22;12351;52.284;9.160;2022-11-02T00:11:47;12.00;99.90
24207;DHT22;12351;52.284;9.160;2022-11-02T00:14:34;12.00;99.90
24207;DHT22;12351;52.284;9.160;2022-11-02T00:17:22;12.10;99.90
24207;DHT22;12351;52.284;9.160;2022-11-02T00:20:12;12.10;99.90
24207;DHT22;12351;52.284;9.160;2022-11-02T00:23:02;12.00;99.90
24207;DHT22;12351;52.284;9.160;2022-11-02T00:25:53;12.00;99.90
24207;DHT22;12351;52.284;9.160;2022-11-02T00:28:42;12.00;99.90
24207;DHT22;12351;52.284;9.160;2022-11-02T00:31:32;12.00;99.90
24207;DHT22;12351;52.284;9.160;2022-11-02T00:34:19;12.00;99.90
24207;DHT22;12351;52.284;9.160;2022-11-02T00:37:07;12.00;99.90
24207;DHT22;12351;52.284;9.160;2022-11-02T00:39:55;12.00;99.90
24207;DHT22;12351;52.284;9.160;2022-11-02T00:42:44;12.00;99.90
24207;DHT22;12351;52.284;9.160;2022-11-02T00:45:31;12.00;99.90
24207;DHT22;12351;52.284;9.160;2022-11-02T00:48:18;12.00;99.90
24207;DHT22;12351;52.284;9.160;2022-11-02T00:51:06;12.00;99.90
24207;DHT22;12351;52.284;9.160;2022-11-02T00:53:53;12.00;99.90
24207;DHT22;12351;52.284;9.160;2022-11-02T00:56:43;12.00;99.90
24207;DHT22;12351;52.284;9.160;2022-11-02T00:59:33;12.00;99.90
24207;DHT22;12351;52.284;9.160;2022-11-02T01:02:21;12.00;99.90
24207;DHT22;12351;52.284;9.160;2022-11-02T01:05:11;12.00;99.90
24207;DHT22;12351;52.284;9.160;2022-11-02T01:07:58;12.00;99.90
24207;DHT22;12351;52.284;9.160;2022-11-02T01:10:47;12.00;99.90
24207;DHT22;12351;52.284;9.160;2022-11-02T01:13:35;11.90;99.90
24207;DHT22;12351;52.284;9.160;2022-11-02T01:16:23;12.00;99.90
24207;DHT22;12351;52.284;9.160;2022-11-02T01:19:12;11.90;99.90
24207;DHT22;12351;52.284;9.160;2022-11-02T01:22:00;12.00;99.90
24207;DHT22;12351;52.284;9.160;2022-11-02T01:24:47;12.00;99.90
24207;DHT22;12351;52.284;9.160;2022-11-02T01:27:37;12.00;99.90
24207;DHT22;12351;52.284;9.160;2022-11-02T01:30:24;12.00;99.90
24207;DHT22;12351;52.284;9.160;2022-11-02T01:33:13;12.00;99.90
24207;DHT22;12351;52.284;9.160;2022-11-02T01:36:03;12.00;99.90
24207;DHT22;12351;52.284;9.160;2022-11-02T01:38:51;12.00;99.90
24207;DHT22;12351;52.284;9.160;2022-11-02T01:41:40;12.00;99.90
24207;DHT22;12351;52.284;9.160;2022-11-02T01:44:32;12.00;99.90
24207;DHT22;12351;52.284;9.160;2022-11-02T01:50:13;12.00;99.90
24207;DHT22;12351;52.284;9.160;2022-11-02T01:53:00;12.00;99.90
24207;DHT22;12351;52.284;9.160;2022-11-02T01:55:48;12.00;99.90
24207;DHT22;12351;52.284;9.160;2022-11-02T01:58:37;12.00;99.90
24207;DHT22;12351;52.284;9.160;2022-11-02T02:01:24;11.90;99.90
24207;DHT22;12351;52.284;9.160;2022-11-02T02:04:13;11.90;99.90
24207;DHT22;12351;52.284;9.160;2022-11-02T02:07:01;12.00;99.90
24207;DHT22;12351;52.284;9.160;2022-11-02T02:09:49;11.90;99.90
24207;DHT22;12351;52.284;9.160;2022-11-02T02:12:41;11.90;99.90
24207;DHT22;12351;52.284;9.160;2022-11-02T02:18:25;12.00;99.90
24207;DHT22;12351;52.284;9.160;2022-11-02T02:38:08;11.50;99.90
24207;DHT22;12351;52.284;9.160;2022-11-02T02:43:48;11.50;99.90
24207;DHT22;12351;52.284;9.160;2022-11-02T02:46:40;11.50;99.90
24207;DHT22;12351;52.284;9.160;2022-11-02T02:49:30;11.50;99.90
24207;DHT22;12351;52.284;9.160;2022-11-02T02:52:17;11.50;99.90
24207;DHT22;12351;52.284;9.160;2022-11-02T02:55:08;11.50;99.90
24207;DHT22;12351;52.284;9.160;2022-11-02T02:57:59;11.50;99.90
24207;DHT22;12351;52.284;9.160;2022-11-02T03:00:48;11.60;99.90
24207;DHT22;12351;52.284;9.160;2022-11-02T03:03:38;11.50;99.90
24207;DHT22;12351;52.284;9.160;2022-11-02T03:09:24;11.50;99.90
24207;DHT22;12351;52.284;9.160;2022-11-02T03:23:37;11.50;99.90
24207;DHT22;12351;52.284;9.160;2022-11-02T03:31:59;11.30;99.90
24207;DHT22;12351;52.284;9.160;2022-11-02T03:34:51;11.40;99.90
24207;DHT22;12351;52.284;9.160;2022-11-02T03:37:42;11.40;99.90
24207;DHT22;12351;52.284;9.160;2022-11-02T03:40:34;11.40;99.90
24207;DHT22;12351;52.284;9.160;2022-11-02T03:43:23;11.40;99.90
24207;DHT22;12351;52.284;9.160;2022-11-02T03:46:11;11.40;99.90
24207;DHT22;12351;52.284;9.160;2022-11-02T03:49:00;11.40;99.90
24207;DHT22;12351;52.284;9.160;2022-11-02T03:51:50;11.40;99.90
24207;DHT22;12351;52.284;9.160;2022-11-02T03:54:41;11.50;99.90
24207;DHT22;12351;52.284;9.160;2022-11-02T03:57:35;11.50;99.90
24207;DHT22;12351;52.284;9.160;2022-11-02T04:00:23;11.50;99.90
24207;DHT22;12351;52.284;9.160;2022-11-02T04:03:11;11.50;99.90
24207;DHT22;12351;52.284;9.160;2022-11-02T04:05:59;11.50;99.90
24207;DHT22;12351;52.284;9.160;2022-11-02T04:08:49;11.50;99.90
24207;DHT22;12351;52.284;9.160;2022-11-02T04:11:38;11.60;99.90
24207;DHT22;12351;52.284;9.160;2022-11-02T04:14:27;11.60;99.90
24207;DHT22;12351;52.284;9.160;2022-11-02T04:17:16;11.60;99.90
24207;DHT22;12351;52.284;9.160;2022-11-02T04:20:05;11.50;99.90
24207;DHT22;12351;52.284;9.160;2022-11-02T04:22:53;11.60;99.90
24207;DHT22;12351;52.284;9.160;2022-11-02T04:25:42;11.50;99.90
24207;DHT22;12351;52.284;9.160;2022-11-02T04:28:31;11.60;99.90
24207;DHT22;12351;52.284;9.160;2022-11-02T04:31:19;11.60;99.90
24207;DHT22;12351;52.284;9.160;2022-11-02T04:34:08;11.50;99.90
24207;DHT22;12351;52.284;9.160;2022-11-02T04:36:55;11.50;99.90
24207;DHT22;12351;52.284;9.160;2022-11-02T04:39:46;11.50;99.90
24207;DHT22;12351;52.284;9.160;2022-11-02T04:42:32;11.50;99.90
24207;DHT22;12351;52.284;9.160;2022-11-02T04:45:19;11.60;99.90
24207;DHT22;12351;52.284;9.160;2022-11-02T04:48:09;11.60;99.90
24207;DHT22;12351;52.284;9.160;2022-11-02T04:50:57;11.60;99.90
24207;DHT22;12351;52.284;9.160;2022-11-02T04:53:45;11.60;99.90
24207;DHT22;12351;52.284;9.160;2022-11-02T04:56:36;11.70;99.90
24207;DHT22;12351;52.284;9.160;2022-11-02T04:59:27;11.70;99.90
24207;DHT22;12351;52.284;9.160;2022-11-02T05:02:16;11.70;99.90
24207;DHT22;12351;52.284;9.160;2022-11-02T05:05:05;11.60;99.90
24207;DHT22;12351;52.284;9.160;2022-11-02T05:07:55;11.60;99.90
24207;DHT22;12351;52.284;9.160;2022-11-02T05:10:43;11.60;99.90
24207;DHT22;12351;52.284;9.160;2022-11-02T05:13:29;11.60;99.90
24207;DHT22;12351;52.284;9.160;2022-11-02T05:16:18;11.60;99.90
24207;DHT22;12351;52.284;9.160;2022-11-02T05:19:08;11.70;99.90
24207;DHT22;12351;52.284;9.160;2022-11-02T05:21:56;11.60;99.90
24207;DHT22;12351;52.284;9.160;2022-11-02T05:24:44;11.60;99.90
24207;DHT22;12351;52.284;9.160;2022-11-02T05:27:33;11.60;99.90
24207;DHT22;12351;52.284;9.160;2022-11-02T05:30:26;11.70;99.90
24207;DHT22;12351;52.284;9.160;2022-11-02T05:33:15;11.70;99.90
24207;DHT22;12351;52.284;9.160;2022-11-02T05:36:04;11.70;99.90
24207;DHT22;12351;52.284;9.160;2022-11-02T05:38:54;11.70;99.90
24207;DHT22;12351;52.284;9.160;2022-11-02T05:41:43;11.70;99.90
24207;DHT22;12351;52.284;9.160;2022-11-02T05:44:31;11.70;99.90
24207;DHT22;12351;52.284;9.160;2022-11-02T05:47:19;11.70;99.90
24207;DHT22;12351;52.284;9.160;2022-11-02T05:50:09;11.70;99.90
24207;DHT22;12351;52.284;9.160;2022-11-02T05:52:58;11.60;99.90
24207;DHT22;12351;52.284;9.160;2022-11-02T05:55:47;11.70;99.90
24207;DHT22;12351;52.284;9.160;2022-11-02T05:58:37;11.70;99.90
24207;DHT22;12351;52.284;9.160;2022-11-02T06:01:25;11.70;99.90
24207;DHT22;12351;52.284;9.160;2022-11-02T06:04:12;11.60;99.90
24207;DHT22;12351;52.284;9.160;2022-11-02T06:07:00;11.60;99.90
24207;DHT22;12351;52.284;9.160;2022-11-02T06:09:48;11.70;99.90
24207;DHT22;12351;52.284;9.160;2022-11-02T06:12:35;11.70;99.90
24207;DHT22;12351;52.284;9.160;2022-11-02T06:15:23;11.60;99.90
24207;DHT22;12351;52.284;9.160;2022-11-02T06:18:12;11.60;99.90
24207;DHT22;12351;52.284;9.160;2022-11-02T06:21:02;11.60;99.90
24207;DHT22;12351;52.284;9.160;2022-11-02T06:23:51;11.60;99.90
24207;DHT22;12351;52.284;9.160;2022-11-02T06:26:41;11.60;99.90
24207;DHT22;12351;52.284;9.160;2022-11-02T06:29:30;11.70;99.90
24207;DHT22;12351;52.284;9.160;2022-11-02T06:32:19;11.70;99.90
24207;DHT22;12351;52.284;9.160;2022-11-02T06:35:07;11.80;99.90
24207;DHT22;12351;52.284;9.160;2022-11-02T06:37:55;11.70;99.90
24207;DHT22;12351;52.284;9.160;2022-11-02T06:40:51;11.70;99.90
24207;DHT22;12351;52.284;9.160;2022-11-02T06:43:32;11.70;99.90
24207;DHT22;12351;52.284;9.160;2022-11-02T06:46:21;11.70;99.90
24207;DHT22;12351;52.284;9.160;2022-11-02T06:49:11;11.70;99.90
24207;DHT22;12351;52.284;9.160;2022-11-02T06:51:59;11.70;99.90
24207;DHT22;12351;52.284;9.160;2022-11-02T06:54:46;11.70;99.90
24207;DHT22;12351;52.284;9.160;2022-11-02T06:57:35;11.80;99.90
24207;DHT22;12351;52.284;9.160;2022-11-02T07:00:22;11.80;99.90
24207;DHT22;12351;52.284;9.160;2022-11-02T07:03:12;11.80;99.90
24207;DHT22;12351;52.284;9.160;2022-11-02T07:06:00;11.80;99.90
24207;DHT22;12351;52.284;9.160;2022-11-02T07:08:50;11.80;99.90
24207;DHT22;12351;52.284;9.160;2022-11-02T07:11:37;11.90;99.90
24207;DHT22;12351;52.284;9.160;2022-11-02T07:14:24;11.90;99.90
24207;DHT22;12351;52.284;9.160;2022-11-02T07:17:14;11.90;99.90
24207;DHT22;12351;52.284;9.160;2022-11-02T07:20:03;11.90;99.90
24207;DHT22;12351;52.284;9.160;2022-11-02T07:22:54;11.90;99.90
24207;DHT22;12351;52.284;9.160;2022-11-02T07:25:42;12.00;99.90
24207;DHT22;12351;52.284;9.160;2022-11-02T07:28:28;12.00;99.90
24207;DHT22;12351;52.284;9.160;2022-11-02T07:31:17;12.00;99.90
24207;DHT22;12351;52.284;9.160;2022-11-02T07:34:05;12.00;99.90
24207;DHT22;12351;52.284;9.160;2022-11-02T07:36:55;12.00;99.90
24207;DHT22;12351;52.284;9.160;2022-11-02T07:39:43;12.00;99.90
24207;DHT22;12351;52.284;9.160;2022-11-02T07:42:33;12.00;99.90
24207;DHT22;12351;52.284;9.160;2022-11-02T07:45:25;12.10;99.90
24207;DHT22;12351;52.284;9.160;2022-11-02T07:48:14;12.00;99.90
24207;DHT22;12351;52.284;9.160;2022-11-02T07:51:02;12.10;99.90
24207;DHT22;12351;52.284;9.160;2022-11-02T07:53:53;12.10;99.90
24207;DHT22;12351;52.284;9.160;2022-11-02T07:56:42;12.10;99.90
24207;DHT22;12351;52.284;9.160;2022-11-02T07:59:30;12.20;99.90
24207;DHT22;12351;52.284;9.160;2022-11-02T08:02:18;12.20;99.90
24207;DHT22;12351;52.284;9.160;2022-11-02T08:05:08;12.20;99.90
24207;DHT22;12351;52.284;9.160;2022-11-02T08:07:57;12.20;99.90
24207;DHT22;12351;52.284;9.160;2022-11-02T08:10:47;12.20;99.90
24207;DHT22;12351;52.284;9.160;2022-11-02T08:13:36;12.30;99.90
24207;DHT22;12351;52.284;9.160;2022-11-02T08:16:27;12.30;99.90
24207;DHT22;12351;52.284;9.160;2022-11-02T08:19:15;12.30;99.90
24207;DHT22;12351;52.284;9.160;2022-11-02T08:22:05;12.40;99.90
24207;DHT22;12351;52.284;9.160;2022-11-02T08:24:54;12.30;99.90
24207;DHT22;12351;52.284;9.160;2022-11-02T08:27:41;12.40;99.90
24207;DHT22;12351;52.284;9.160;2022-11-02T08:30:31;12.40;99.90
24207;DHT22;12351;52.284;9.160;2022-11-02T08:33:21;12.40;99.90
24207;DHT22;12351;52.284;9.160;2022-11-02T08:36:09;12.40;99.90
24207;DHT22;12351;52.284;9.160;2022-11-02T08:38:57;12.40;99.90
24207;DHT22;12351;52.284;9.160;2022-11-02T08:41:45;12.40;99.90
24207;DHT22;12351;52.284;9.160;2022-11-02T08:44:33;12.40;99.90
24207;DHT22;12351;52.284;9.160;2022-11-02T08:47:22;12.40;99.90
24207;DHT22;12351;52.284;9.160;2022-11-02T08:50:12;12.40;99.90
24207;DHT22;12351;52.284;9.160;2022-11-02T08:52:59;12.50;99.90
24207;DHT22;12351;52.284;9.160;2022-11-02T08:55:47;12.40;99.90
24207;DHT22;12351;52.284;9.160;2022-11-02T08:58:35;12.50;99.90
24207;DHT22;12351;52.284;9.160;2022-11-02T09:01:24;12.40;99.90
24207;DHT22;12351;52.284;9.160;2022-11-02T09:04:13;12.50;99.90
24207;DHT22;12351;52.284;9.160;2022-11-02T09:07:04;12.50;99.90
24207;DHT22;12351;52.284;9.160;2022-11-02T09:09:50;12.60;99.90
24207;DHT22;12351;52.284;9.160;2022-11-02T09:12:39;12.60;99.90
24207;DHT22;12351;52.284;9.160;2022-11-02T09:15:29;12.60;99.90
24207;DHT22;12351;52.284;9.160;2022-11-02T09:18:18;12.50;99.90
24207;DHT22;12351;52.284;9.160;2022-11-02T09:21:06;12.70;99.90
24207;DHT22;12351;52.284;9.160;2022-11-02T09:23:56;12.70;99.90
24207;DHT22;12351;52.284;9.160;2022-11-02T09:26:45;12.70;99.90
24207;DHT22;12351;52.284;9.160;2022-11-02T09:29:35;12.70;99.90
24207;DHT22;12351;52.284;9.160;2022-11-02T09:32:23;12.70;99.90
24207;DHT22;12351;52.284;9.160;2022-11-02T09:35:11;12.70;99.90
24207;DHT22;12351;52.284;9.160;2022-11-02T09:37:59;12.70;99.90
24207;DHT22;12351;52.284;9.160;2022-11-02T09:40:54;12.80;99.90
24207;DHT22;12351;52.284;9.160;2022-11-02T09:46:35;12.90;99.90
24207;DHT22;12351;52.284;9.160;2022-11-02T09:49:23;12.80;99.90
24207;DHT22;12351;52.284;9.160;2022-11-02T09:52:15;12.90;99.90
24207;DHT22;12351;52.284;9.160;2022-11-02T09:55:04;12.90;99.90
24207;DHT22;12351;52.284;9.160;2022-11-02T09:57:57;12.90;99.90
24207;DHT22;12351;52.284;9.160;2022-11-02T10:00:44;13.10;99.90
24207;DHT22;12351;52.284;9.160;2022-11-02T10:06:23;13.00;99.90
24207;DHT22;12351;52.284;9.160;2022-11-02T10:09:16;12.90;99.90
24207;DHT22;12351;52.284;9.160;2022-11-02T10:12:06;13.00;99.90
24207;DHT22;12351;52.284;9.160;2022-11-02T10:14:57;13.00;99.90
24207;DHT22;12351;52.284;9.160;2022-11-02T10:17:47;12.90;99.90
24207;DHT22;12351;52.284;9.160;2022-11-02T10:20:38;12.90;99.90
24207;DHT22;12351;52.284;9.160;2022-11-02T10:23:29;12.90;99.90
24207;DHT22;12351;52.284;9.160;2022-11-02T10:26:22;12.90;99.90
24207;DHT22;12351;52.284;9.160;2022-11-02T10:31:59;13.00;99.90
24207;DHT22;12351;52.284;9.160;2022-11-02T10:34:49;12.90;99.90
24207;DHT22;12351;52.284;9.160;2022-11-02T10:48:51;13.00;99.90
24207;DHT22;12351;52.284;9.160;2022-11-02T10:51:37;13.00;99.90
24207;DHT22;12351;52.284;9.160;2022-11-02T10:54:28;13.00;99.90
24207;DHT22;12351;52.284;9.160;2022-11-02T11:08:44;13.10;99.90
24207;DHT22;12351;52.284;9.160;2022-11-02T11:11:34;13.00;99.90
24207;DHT22;12351;52.284;9.160;2022-11-02T11:14:24;13.10;99.90
24207;DHT22;12351;52.284;9.160;2022-11-02T11:17:16;13.10;99.90
24207;DHT22;12351;52.284;9.160;2022-11-02T11:20:06;13.20;99.90
24207;DHT22;12351;52.284;9.160;2022-11-02T11:28:37;13.40;99.90
24207;DHT22;12351;52.284;9.160;2022-11-02T11:31:26;13.30;99.90
24207;DHT22;12351;52.284;9.160;2022-11-02T11:37:08;13.40;99.90
24207;DHT22;12351;52.284;9.160;2022-11-02T11:40:00;13.30;99.90
24207;DHT22;12351;52.284;9.160;2022-11-02T11:42:49;13.20;99.90
24207;DHT22;12351;52.284;9.160;2022-11-02T11:45:39;13.20;99.90
24207;DHT22;12351;52.284;9.160;2022-11-02T11:48:32;13.30;99.90
24207;DHT22;12351;52.284;9.160;2022-11-02T11:59:50;13.50;99.90
24207;DHT22;12351;52.284;9.160;2022-11-02T12:02:39;13.60;99.90
24207;DHT22;12351;52.284;9.160;2022-11-02T12:05:29;13.70;99.90
24207;DHT22;12351;52.284;9.160;2022-11-02T12:22:22;13.90;99.90
24207;DHT22;12351;52.284;9.160;2022-11-02T12:25:13;13.60;99.90
24207;DHT22;12351;52.284;9.160;2022-11-02T12:28:04;13.70;99.90
24207;DHT22;12351;52.284;9.160;2022-11-02T12:39:12;13.70;99.90
24207;DHT22;12351;52.284;9.160;2022-11-02T12:42:04;13.70;99.90
24207;DHT22;12351;52.284;9.160;2022-11-02T12:50:36;13.40;99.90
24207;DHT22;12351;52.284;9.160;2022-11-02T12:56:18;13.20;99.90
24207;DHT22;12351;52.284;9.160;2022-11-02T12:59:06;13.20;99.90
24207;DHT22;12351;52.284;9.160;2022-11-02T13:01:56;13.30;99.90
24207;DHT22;12351;52.284;9.160;2022-11-02T13:07:39;13.50;99.90
24207;DHT22;12351;52.284;9.160;2022-11-02T13:10:31;13.40;99.90
24207;DHT22;12351;52.284;9.160;2022-11-02T13:13:23;13.40;99.90
24207;DHT22;12351;52.284;9.160;2022-11-02T13:16:10;13.30;99.90
24207;DHT22;12351;52.284;9.160;2022-11-02T13:19:02;13.20;99.90
24207;DHT22;12351;52.284;9.160;2022-11-02T13:21:51;13.20;99.90
24207;DHT22;12351;52.284;9.160;2022-11-02T13:24:42;13.20;99.90
24207;DHT22;12351;52.284;9.160;2022-11-02T13:27:32;13.30;99.90
24207;DHT22;12351;52.284;9.160;2022-11-02T13:30:22;13.40;99.90
24207;DHT22;12351;52.284;9.160;2022-11-02T13:33:14;13.40;99.90
24207;DHT22;12351;52.284;9.160;2022-11-02T13:36:00;13.30;99.90
24207;DHT22;12351;52.284;9.160;2022-11-02T13:38:52;13.20;99.90
24207;DHT22;12351;52.284;9.160;2022-11-02T13:41:46;13.30;99.90
24207;DHT22;12351;52.284;9.160;2022-11-02T13:50:14;13.20;99.90
24207;DHT22;12351;52.284;9.160;2022-11-02T13:53:03;13.30;99.90
24207;DHT22;12351;52.284;9.160;2022-11-02T13:55:56;13.40;99.90
24207;DHT22;12351;52.284;9.160;2022-11-02T13:58:45;13.40;99.90
24207;DHT22;12351;52.284;9.160;2022-11-02T14:01:37;13.50;99.90
24207;DHT22;12351;52.284;9.160;2022-11-02T14:04:25;13.60;99.90
24207;DHT22;12351;52.284;9.160;2022-11-02T14:10:07;13.70;99.90
24207;DHT22;12351;52.284;9.160;2022-11-02T14:12:57;13.70;99.90
24207;DHT22;12351;52.284;9.160;2022-11-02T14:15:50;13.70;99.90
24207;DHT22;12351;52.284;9.160;2022-11-02T14:18:39;13.70;99.90
24207;DHT22;12351;52.284;9.160;2022-11-02T14:30:01;13.50;99.90
24207;DHT22;12351;52.284;9.160;2022-11-02T14:32:54;13.50;99.90
24207;DHT22;12351;52.284;9.160;2022-11-02T14:35:42;13.50;99.90
24207;DHT22;12351;52.284;9.160;2022-11-02T14:38:37;13.50;99.90
24207;DHT22;12351;52.284;9.160;2022-11-02T14:41:29;13.40;99.90
24207;DHT22;12351;52.284;9.160;2022-11-02T14:47:06;13.30;99.90
24207;DHT22;12351;52.284;9.160;2022-11-02T14:49:55;13.20;99.90
24207;DHT22;12351;52.284;9.160;2022-11-02T14:55:36;13.20;99.90
24207;DHT22;12351;52.284;9.160;2022-11-02T14:58:30;13.20;99.90
24207;DHT22;12351;52.284;9.160;2022-11-02T15:01:15;13.10;99.90
24207;DHT22;12351;52.284;9.160;2022-11-02T15:04:05;13.00;99.90
24207;DHT22;12351;52.284;9.160;2022-11-02T15:06:55;13.00;99.90
24207;DHT22;12351;52.284;9.160;2022-11-02T15:12:38;12.90;99.90
24207;DHT22;12351;52.284;9.160;2022-11-02T15:29:36;12.60;99.90
24207;DHT22;12351;52.284;9.160;2022-11-02T15:32:24;12.50;99.90
24207;DHT22;12351;52.284;9.160;2022-11-02T15:35:15;12.50;99.90
24207;DHT22;12351;52.284;9.160;2022-11-02T15:38:04;12.50;99.90
24207;DHT22;12351;52.284;9.160;2022-11-02T15:43:47;12.40;99.90
24207;DHT22;12351;52.284;9.160;2022-11-02T16:00:28;12.10;99.90
24207;DHT22;12351;52.284;9.160;2022-11-02T16:03:17;12.10;99.90
24207;DHT22;12351;52.284;9.160;2022-11-02T16:06:11;12.00;99.90
24207;DHT22;12351;52.284;9.160;2022-11-02T16:08:59;12.00;99.90
24207;DHT22;12351;52.284;9.160;2022-11-02T16:14:49;11.90;99.90
24207;DHT22;12351;52.284;9.160;2022-11-02T16:17:36;11.90;99.90
24207;DHT22;12351;52.284;9.160;2022-11-02T16:23:20;11.90;99.90
24207;DHT22;12351;52.284;9.160;2022-11-02T16:26:11;11.80;99.90
24207;DHT22;12351;52.284;9.160;2022-11-02T16:28:58;11.70;99.90
24207;DHT22;12351;52.284;9.160;2022-11-02T16:31:52;11.70;99.90
24207;DHT22;12351;52.284;9.160;2022-11-02T16:34:41;11.70;99.90
24207;DHT22;12351;52.284;9.160;2022-11-02T16:37:31;11.70;99.90
24207;DHT22;12351;52.284;9.160;2022-11-02T16:40:23;11.60;99.90
24207;DHT22;12351;52.284;9.160;2022-11-02T16:43:15;11.50;99.90
24207;DHT22;12351;52.284;9.160;2022-11-02T16:46:06;11.60;99.90
24207;DHT22;12351;52.284;9.160;2022-11-02T16:51:48;11.60;99.90
24207;DHT22;12351;52.284;9.160;2022-11-02T16:54:39;11.50;99.90
24207;DHT22;12351;52.284;9.160;2022-11-02T16:57:30;11.60;99.90
24207;DHT22;12351;52.284;9.160;2022-11-02T17:00:23;11.50;99.90
24207;DHT22;12351;52.284;9.160;2022-11-02T17:03:14;11.50;99.90
24207;DHT22;12351;52.284;9.160;2022-11-02T17:06:04;11.50;99.90
24207;DHT22;12351;52.284;9.160;2022-11-02T17:08:57;11.40;99.90
24207;DHT22;12351;52.284;9.160;2022-11-02T17:11:48;11.40;99.90
24207;DHT22;12351;52.284;9.160;2022-11-02T17:14:40;11.40;99.90
24207;DHT22;12351;52.284;9.160;2022-11-02T17:17:31;11.40;99.90
24207;DHT22;12351;52.284;9.160;2022-11-02T17:20:23;11.40;99.90
24207;DHT22;12351;52.284;9.160;2022-11-02T17:28:56;11.40;99.90
24207;DHT22;12351;52.284;9.160;2022-11-02T17:31:53;11.40;99.90
24207;DHT22;12351;52.284;9.160;2022-11-02T17:37:34;11.30;99.90
24207;DHT22;12351;52.284;9.160;2022-11-02T17:40:22;11.30;99.90
24207;DHT22;12351;52.284;9.160;2022-11-02T17:43:10;11.30;99.90
24207;DHT22;12351;52.284;9.160;2022-11-02T17:46:02;11.30;99.90
24207;DHT22;12351;52.284;9.160;2022-11-02T17:48:54;11.30;99.90
24207;DHT22;12351;52.284;9.160;2022-11-02T17:51:44;11.20;99.90
24207;DHT22;12351;52.284;9.160;2022-11-02T17:54:34;11.20;99.90
24207;DHT22;12351;52.284;9.160;2022-11-02T17:57:23;11.20;99.90
24207;DHT22;12351;52.284;9.160;2022-11-02T18:00:16;11.20;99.90
24207;DHT22;12351;52.284;9.160;2022-11-02T18:03:10;11.20;99.90
24207;DHT22;12351;52.284;9.160;2022-11-02T18:05:55;11.10;99.90
24207;DHT22;12351;52.284;9.160;2022-11-02T18:08:43;11.10;99.90
24207;DHT22;12351;52.284;9.160;2022-11-02T18:11:35;11.10;99.90
24207;DHT22;12351;52.284;9.160;2022-11-02T18:14:26;11.10;99.90
24207;DHT22;12351;52.284;9.160;2022-11-02T18:17:13;11.00;99.90
24207;DHT22;12351;52.284;9.160;2022-11-02T18:20:07;11.00;99.90
24207;DHT22;12351;52.284;9.160;2022-11-02T18:22:57;11.00;99.90
24207;DHT22;12351;52.284;9.160;2022-11-02T18:25:48;11.00;99.90
24207;DHT22;12351;52.284;9.160;2022-11-02T18:28:38;11.00;99.90
24207;DHT22;12351;52.284;9.160;2022-11-02T18:31:28;11.00;99.90
24207;DHT22;12351;52.284;9.160;2022-11-02T18:34:19;11.00;99.90
24207;DHT22;12351;52.284;9.160;2022-11-02T18:37:13;10.90;99.90
24207;DHT22;12351;52.284;9.160;2022-11-02T18:40:03;10.90;99.90
24207;DHT22;12351;52.284;9.160;2022-11-02T18:42:52;11.00;99.90
24207;DHT22;12351;52.284;9.160;2022-11-02T18:45:43;10.90;99.90
24207;DHT22;12351;52.284;9.160;2022-11-02T18:48:34;10.90;99.90
24207;DHT22;12351;52.284;9.160;2022-11-02T18:51:24;10.90;99.90
24207;DHT22;12351;52.284;9.160;2022-11-02T18:54:15;10.80;99.90
24207;DHT22;12351;52.284;9.160;2022-11-02T18:57:03;10.80;99.90
24207;DHT22;12351;52.284;9.160;2022-11-02T18:59:55;10.90;99.90
24207;DHT22;12351;52.284;9.160;2022-11-02T19:02:45;10.80;99.90
24207;DHT22;12351;52.284;9.160;2022-11-02T19:05:36;10.80;99.90
24207;DHT22;12351;52.284;9.160;2022-11-02T19:08:27;10.90;99.90
24207;DHT22;12351;52.284;9.160;2022-11-02T19:11:17;10.90;99.90
24207;DHT22;12351;52.284;9.160;2022-11-02T19:14:08;10.90;99.90
24207;DHT22;12351;52.284;9.160;2022-11-02T19:16:59;10.90;99.90
24207;DHT22;12351;52.284;9.160;2022-11-02T19:19:51;10.90;99.90
24207;DHT22;12351;52.284;9.160;2022-11-02T19:22:44;11.00;99.90
24207;DHT22;12351;52.284;9.160;2022-11-02T19:25:35;11.00;99.90
24207;DHT22;12351;52.284;9.160;2022-11-02T19:28:23;11.00;99.90
24207;DHT22;12351;52.284;9.160;2022-11-02T19:31:12;11.00;99.90
24207;DHT22;12351;52.284;9.160;2022-11-02T19:34:04;11.00;99.90
24207;DHT22;12351;52.284;9.160;2022-11-02T19:36:54;11.00;99.90
24207;DHT22;12351;52.284;9.160;2022-11-02T19:39:45;11.00;99.90
24207;DHT22;12351;52.284;9.160;2022-11-02T19:42:36;11.10;99.90
24207;DHT22;12351;52.284;9.160;2022-11-02T19:45:27;11.10;99.90
24207;DHT22;12351;52.284;9.160;2022-11-02T19:48:18;11.10;99.90
24207;DHT22;12351;52.284;9.160;2022-11-02T19:51:08;11.10;99.90
24207;DHT22;12351;52.284;9.160;2022-11-02T19:53:59;11.10;99.90
24207;DHT22;12351;52.284;9.160;2022-11-02T19:56:51;11.20;99.90
24207;DHT22;12351;52.284;9.160;2022-11-02T19:59:42;11.20;99.90
24207;DHT22;12351;52.284;9.160;2022-11-02T20:02:30;11.20;99.90
24207;DHT22;12351;52.284;9.160;2022-11-02T20:05:22;11.20;99.90
24207;DHT22;12351;52.284;9.160;2022-11-02T20:08:09;11.20;99.90
24207;DHT22;12351;52.284;9.160;2022-11-02T20:11:01;11.20;99.90
24207;DHT22;12351;52.284;9.160;2022-11-02T20:13:51;11.20;99.90
24207;DHT22;12351;52.284;9.160;2022-11-02T20:16:41;11.10;99.90
24207;DHT22;12351;52.284;9.160;2022-11-02T20:19:33;11.10;99.90
24207;DHT22;12351;52.284;9.160;2022-11-02T20:22:24;11.10;99.90
24207;DHT22;12351;52.284;9.160;2022-11-02T20:25:14;11.10;99.90
24207;DHT22;12351;52.284;9.160;2022-11-02T20:28:04;11.10;99.90
24207;DHT22;12351;52.284;9.160;2022-11-02T20:30:53;11.10;99.90
24207;DHT22;12351;52.284;9.160;2022-11-02T20:33:45;11.10;99.90
24207;DHT22;12351;52.284;9.160;2022-11-02T20:36:34;11.10;99.90
24207;DHT22;12351;52.284;9.160;2022-11-02T20:39:25;11.00;99.90
24207;DHT22;12351;52.284;9.160;2022-11-02T20:42:18;11.00;99.90
24207;DHT22;12351;52.284;9.160;2022-11-02T20:45:08;11.00;99.90
24207;DHT22;12351;52.284;9.160;2022-11-02T20:50:49;11.00;99.90
24207;DHT22;12351;52.284;9.160;2022-11-02T20:53:40;11.00;99.90
24207;DHT22;12351;52.284;9.160;2022-11-02T20:56:32;10.90;99.90
24207;DHT22;12351;52.284;9.160;2022-11-02T20:59:21;10.90;99.90
24207;DHT22;12351;52.284;9.160;2022-11-02T21:02:11;10.90;99.90
24207;DHT22;12351;52.284;9.160;2022-11-02T21:05:04;10.90;99.90
24207;DHT22;12351;52.284;9.160;2022-11-02T21:07:52;10.90;99.90
24207;DHT22;12351;52.284;9.160;2022-11-02T21:10:42;10.80;99.90
24207;DHT22;12351;52.284;9.160;2022-11-02T21:13:35;10.80;99.90